createdAt,value
2023-05-01T00:01:00.893Z,98110.97
2023-05-01T00:03:28.408Z,98119.31
2023-05-01T00:06:03.506Z,98125.25
2023-05-01T00:08:31.175Z,98128.75
2023-05-01T00:11:02.373Z,98133.06
2023-05-01T00:13:29.319Z,98127.94
2023-05-01T00:15:56.624Z,98115.81
2023-05-01T00:18:23.703Z,98120.13
2023-05-01T00:20:50.638Z,98125.28
2023-05-01T00:23:17.900Z,98140.09
2023-05-01T00:25:44.787Z,98154.63
2023-05-01T00:28:11.977Z,98155.72
2023-05-01T00:30:39.278Z,98151.69
2023-05-01T00:33:06.361Z,98137.13
2023-05-01T00:35:35.867Z,98132.00
2023-05-01T00:38:02.990Z,98122.84
2023-05-01T00:40:29.995Z,98127.97
2023-05-01T00:42:57.248Z,98118.00
2023-05-01T00:45:25.519Z,98132.00
2023-05-01T00:47:52.836Z,98120.69
2023-05-01T00:50:19.996Z,98109.91
2023-05-01T00:52:46.998Z,98086.47
2023-05-01T00:55:14.164Z,98087.28
2023-05-01T00:57:41.318Z,98094.03
2023-05-01T01:00:11.442Z,98109.66
2023-05-01T01:02:38.492Z,98120.69
2023-05-01T01:05:05.901Z,98132.53
2023-05-01T01:07:47.647Z,98147.63
2023-05-01T01:10:18.962Z,98156.28
2023-05-01T01:13:12.153Z,98158.44
2023-05-01T01:15:53.895Z,98153.31
2023-05-01T01:18:36.691Z,98145.22
2023-05-01T01:21:28.270Z,98137.69
2023-05-01T01:24:06.205Z,98122.06
2023-05-01T01:26:51.084Z,98118.00
2023-05-01T01:29:46.668Z,98114.25
2023-05-01T01:32:48.458Z,98091.63
2023-05-01T01:35:20.884Z,98066.25
2023-05-01T01:38:00.692Z,98078.38
2023-05-01T01:40:45.145Z,98098.06
2023-05-01T01:43:17.209Z,98096.44
2023-05-01T01:45:48.030Z,98095.38
2023-05-01T01:48:22.791Z,98080.81
2023-05-01T01:50:51.329Z,98094.03
2023-05-01T01:53:21.027Z,98104.53
2023-05-01T01:55:49.758Z,98090.25
2023-05-01T01:58:20.895Z,98105.34
2023-05-01T02:00:48.924Z,98101.03
2023-05-01T02:03:17.836Z,98082.69
2023-05-01T02:05:47.754Z,98079.19
2023-05-01T02:08:16.833Z,98090.78
2023-05-01T02:10:45.467Z,98091.06
2023-05-01T02:13:14.801Z,98091.06
2023-05-01T02:15:42.430Z,98090.78
2023-05-01T02:18:10.195Z,98080.03
2023-05-01T02:20:37.859Z,98074.91
2023-05-01T02:23:07.972Z,98074.09
2023-05-01T02:25:39.505Z,98076.50
2023-05-01T02:28:13.972Z,98081.63
2023-05-01T02:30:41.354Z,98106.41
2023-05-01T02:33:09.233Z,98127.44
2023-05-01T02:35:41.001Z,98130.41
2023-05-01T02:38:08.379Z,98140.91
2023-05-01T02:40:38.843Z,98147.91
2023-05-01T02:43:11.629Z,98160.59
2023-05-01T02:45:41.699Z,98139.56
2023-05-01T02:48:12.430Z,98154.38
2023-05-01T02:50:43.457Z,98160.31
2023-05-01T02:53:12.285Z,98154.91
2023-05-01T02:55:56.798Z,98148.44
2023-05-01T02:58:23.984Z,98147.38
2023-05-01T03:00:51.153Z,98134.69
2023-05-01T03:03:19.624Z,98143.06
2023-05-01T03:05:47.718Z,98146.59
2023-05-01T03:08:15.240Z,98125.81
2023-05-01T03:10:43.337Z,98127.97
2023-05-01T03:13:11.743Z,98126.88
2023-05-01T03:15:39.530Z,98113.13
2023-05-01T03:18:07.114Z,98112.88
2023-05-01T03:20:34.334Z,98114.47
2023-05-01T03:23:02.481Z,98124.72
2023-05-01T03:25:30.196Z,98137.69
2023-05-01T03:27:57.249Z,98140.63
2023-05-01T03:30:24.955Z,98152.22
2023-05-01T03:32:54.501Z,98149.53
2023-05-01T03:35:27.721Z,98142.81
2023-05-01T03:37:55.233Z,98148.72
2023-05-01T03:40:42.135Z,98153.84
2023-05-01T03:43:29.362Z,98158.69
2023-05-01T03:45:58.676Z,98173.53
2023-05-01T03:48:25.972Z,98162.75
2023-05-01T03:50:53.192Z,98165.97
2023-05-01T03:53:20.271Z,98167.84
2023-05-01T03:55:47.712Z,98167.03
2023-05-01T03:58:14.970Z,98164.31
2023-05-01T04:00:41.929Z,98161.34
2023-05-01T04:03:09.653Z,98158.41
2023-05-01T04:05:39.197Z,98165.13
2023-05-01T04:08:06.492Z,98157.81
2023-05-01T04:10:33.497Z,98164.28
2023-05-01T04:13:05.077Z,98158.34
2023-05-01T04:15:32.624Z,98165.63
2023-05-01T04:17:59.741Z,98162.13
2023-05-01T04:20:27.045Z,98163.75
2023-05-01T04:22:55.108Z,98168.06
2023-05-01T04:25:22.114Z,98160.75
2023-05-01T04:27:51.786Z,98159.69
2023-05-01T04:30:19.057Z,98164.25
2023-05-01T04:32:46.457Z,98171.25
2023-05-01T04:35:14.068Z,98178.81
2023-05-01T04:37:43.737Z,98177.44
2023-05-01T04:40:11.873Z,98175.28
2023-05-01T04:42:40.102Z,98172.31
2023-05-01T04:45:11.961Z,98179.84
2023-05-01T04:47:38.915Z,98182.28
2023-05-01T04:50:06.891Z,98190.34
2023-05-01T04:52:34.259Z,98193.84
2023-05-01T04:55:03.959Z,98184.66
2023-05-01T04:57:34.749Z,98190.59
2023-05-01T05:00:05.825Z,98189.78
2023-05-01T05:02:34.760Z,98200.03
2023-05-01T05:05:02.084Z,98199.22
2023-05-01T05:07:30.458Z,98201.13
2023-05-01T05:10:16.072Z,98196.28
2023-05-01T05:12:53.880Z,98188.22
2023-05-01T05:15:21.745Z,98185.50
2023-05-01T05:17:48.847Z,98190.34
2023-05-01T05:20:16.065Z,98193.03
2023-05-01T05:22:43.178Z,98193.28
2023-05-01T05:25:21.457Z,98191.91
2023-05-01T05:27:48.488Z,98194.34
2023-05-01T05:30:16.224Z,98189.19
2023-05-01T05:32:46.407Z,98188.13
2023-05-01T05:35:14.141Z,98187.59
2023-05-01T05:37:41.630Z,98190.53
2023-05-01T05:40:10.594Z,98187.81
2023-05-01T05:42:46.601Z,98201.81
2023-05-01T05:45:13.679Z,98191.78
2023-05-01T05:47:41.131Z,98183.69
2023-05-01T05:50:08.832Z,98202.84
2023-05-01T05:52:36.306Z,98210.94
2023-05-01T05:55:04.241Z,98216.63
2023-05-01T05:57:31.267Z,98215.81
2023-05-01T05:59:58.681Z,98226.06
2023-05-01T06:02:27.556Z,98238.75
2023-05-01T06:04:54.723Z,98238.72
2023-05-01T06:07:28.880Z,98243.28
2023-05-01T06:09:56.168Z,98232.44
2023-05-01T06:12:24.574Z,98234.03
2023-05-01T06:14:52.642Z,98231.00
2023-05-01T06:17:20.539Z,98229.03
2023-05-01T06:19:47.497Z,98227.63
2023-05-01T06:22:14.454Z,98245.94
2023-05-01T06:24:53.200Z,98236.69
2023-05-01T06:27:20.517Z,98246.63
2023-05-01T06:29:47.598Z,98241.41
2023-05-01T06:32:14.507Z,98254.06
2023-05-01T06:34:41.765Z,98266.44
2023-05-01T06:37:08.766Z,98263.16
2023-05-01T06:39:35.856Z,98273.41
2023-05-01T06:42:03.356Z,98271.25
2023-05-01T06:44:33.757Z,98267.75
2023-05-01T06:47:02.063Z,98269.91
2023-05-01T06:49:29.313Z,98284.31
2023-05-01T06:51:56.379Z,98273.75
2023-05-01T06:54:23.447Z,98281.88
2023-05-01T06:56:50.486Z,98290.81
2023-05-01T06:59:17.516Z,98286.72
2023-05-01T07:01:44.890Z,98301.81
2023-05-01T07:04:12.082Z,98289.25
2023-05-01T07:06:39.062Z,98296.47
2023-05-01T07:09:06.203Z,98299.97
2023-05-01T07:11:33.817Z,98322.66
2023-05-01T07:14:01.405Z,98296.88
2023-05-01T07:16:28.635Z,98302.53
2023-05-01T07:18:55.554Z,98305.47
2023-05-01T07:21:22.534Z,98298.88
2023-05-01T07:23:49.556Z,98288.34
2023-05-01T07:26:16.868Z,98297.94
2023-05-01T07:28:43.940Z,98304.31
2023-05-01T07:31:10.909Z,98297.94
2023-05-01T07:33:38.188Z,98312.00
2023-05-01T07:36:05.192Z,98313.00
2023-05-01T07:38:32.169Z,98309.72
2023-05-01T07:40:59.131Z,98313.53
2023-05-01T07:43:26.124Z,98325.63
2023-05-01T07:45:58.481Z,98330.91
2023-05-01T07:48:26.125Z,98326.69
2023-05-01T07:50:54.223Z,98328.88
2023-05-01T07:53:23.015Z,98322.09
2023-05-01T07:55:50.141Z,98326.81
2023-05-01T07:58:20.582Z,98343.13
2023-05-01T08:00:47.776Z,98333.94
2023-05-01T08:03:14.913Z,98337.28
2023-05-01T08:05:42.780Z,98340.00
2023-05-01T08:08:09.855Z,98341.91
2023-05-01T08:10:37.232Z,98355.72
2023-05-01T08:13:04.270Z,98347.22
2023-05-01T08:15:31.376Z,98346.06
2023-05-01T08:17:58.391Z,98355.81
2023-05-01T08:20:25.453Z,98358.16
2023-05-01T08:22:52.570Z,98364.91
2023-05-01T08:25:19.638Z,98374.06
2023-05-01T08:27:48.010Z,98386.09
2023-05-01T08:30:15.164Z,98389.63
2023-05-01T08:32:42.366Z,98393.13
2023-05-01T08:35:09.829Z,98396.38
2023-05-01T08:37:36.898Z,98394.53
2023-05-01T08:40:08.675Z,98404.59
2023-05-01T08:42:37.529Z,98406.50
2023-05-01T08:45:14.538Z,98410.88
2023-05-01T08:47:43.520Z,98419.09
2023-05-01T08:50:14.369Z,98418.59
2023-05-01T08:52:44.706Z,98407.44
2023-05-01T08:55:15.914Z,98412.28
2023-05-01T08:57:46.952Z,98418.38
2023-05-01T09:00:21.718Z,98414.13
2023-05-01T09:02:50.157Z,98425.59
2023-05-01T09:05:19.395Z,98429.28
2023-05-01T09:07:47.558Z,98428.69
2023-05-01T09:10:17.830Z,98436.13
2023-05-01T09:12:49.359Z,98443.44
2023-05-01T09:15:16.754Z,98444.28
2023-05-01T09:17:45.206Z,98439.06
2023-05-01T09:20:12.677Z,98438.19
2023-05-01T09:22:39.773Z,98433.41
2023-05-01T09:25:07.530Z,98456.00
2023-05-01T09:27:35.922Z,98447.34
2023-05-01T09:30:03.539Z,98456.19
2023-05-01T09:32:31.270Z,98446.63
2023-05-01T09:35:15.417Z,98484.03
2023-05-01T09:37:42.760Z,98461.69
2023-05-01T09:40:14.873Z,98461.81
2023-05-01T09:42:52.836Z,98448.00
2023-05-01T09:45:20.502Z,98452.41
2023-05-01T09:47:48.209Z,98455.19
2023-05-01T09:50:32.441Z,98454.72
2023-05-01T09:53:06.762Z,98457.25
2023-05-01T09:55:34.634Z,98458.13
2023-05-01T09:58:02.331Z,98459.56
2023-05-01T10:00:30.270Z,98488.13
2023-05-01T10:02:57.500Z,98479.34
2023-05-01T10:05:24.819Z,98480.03
2023-05-01T10:08:03.843Z,98482.91
2023-05-01T10:10:31.126Z,98494.66
2023-05-01T10:13:13.779Z,98519.38
2023-05-01T10:15:40.915Z,98507.28
2023-05-01T10:18:11.820Z,98523.31
2023-05-01T10:20:38.871Z,98573.16
2023-05-01T10:23:06.370Z,98542.94
2023-05-01T10:25:33.787Z,98541.63
2023-05-01T10:28:04.813Z,98530.59
2023-05-01T10:30:32.620Z,98542.22
2023-05-01T10:33:00.189Z,98543.06
2023-05-01T10:35:38.413Z,98531.44
2023-05-01T10:38:07.899Z,98557.41
2023-05-01T10:40:41.166Z,98557.97
2023-05-01T10:43:30.155Z,98582.53
2023-05-01T10:46:27.120Z,98573.06
2023-05-01T10:48:54.730Z,98573.63
2023-05-01T10:51:28.204Z,98602.47
2023-05-01T10:54:27.830Z,98581.09
2023-05-01T10:56:57.373Z,98593.22
2023-05-01T10:59:25.178Z,98604.53
2023-05-01T11:01:54.162Z,98607.75
2023-05-01T11:04:24.773Z,98604.22
2023-05-01T11:07:08.332Z,98646.28
2023-05-01T11:09:39.515Z,98614.06
2023-05-01T11:12:07.575Z,98623.78
2023-05-01T11:15:08.008Z,98634.75
2023-05-01T11:17:41.910Z,98644.66
2023-05-01T11:20:24.626Z,98636.78
2023-05-01T11:22:53.863Z,98667.38
2023-05-01T11:25:23.212Z,98660.00
2023-05-01T11:27:54.125Z,98649.31
2023-05-01T11:30:21.503Z,98653.25
2023-05-01T11:32:49.955Z,98647.22
2023-05-01T11:35:22.032Z,98664.66
2023-05-01T11:37:51.322Z,98668.44
2023-05-01T11:40:26.155Z,98686.66
2023-05-01T11:43:09.135Z,98715.91
2023-05-01T11:45:37.963Z,98675.41
2023-05-01T11:48:05.662Z,98686.13
2023-05-01T11:50:35.758Z,98690.88
2023-05-01T11:53:05.223Z,98697.50
2023-05-01T11:55:33.300Z,98703.63
2023-05-01T11:58:00.998Z,98698.19
2023-05-01T12:00:30.012Z,98705.13
2023-05-01T12:03:01.291Z,98708.06
2023-05-01T12:05:30.831Z,98707.72
2023-05-01T12:08:21.463Z,98729.25
2023-05-01T12:10:58.941Z,98729.44
2023-05-01T12:13:27.278Z,98742.28
2023-05-01T12:15:55.747Z,98732.84
2023-05-01T12:18:23.452Z,98749.47
2023-05-01T12:20:53.345Z,98742.38
2023-05-01T12:23:31.675Z,98735.13
2023-05-01T12:25:58.781Z,98748.81
2023-05-01T12:28:27.725Z,98748.59
2023-05-01T12:31:04.964Z,98739.22
2023-05-01T12:33:32.849Z,98743.59
2023-05-01T12:36:11.943Z,98751.16
2023-05-01T12:38:39.207Z,98748.47
2023-05-01T12:41:08.981Z,98762.78
2023-05-01T12:43:38.205Z,98757.59
2023-05-01T12:46:07.842Z,98764.41
2023-05-01T12:48:39.452Z,98760.09
2023-05-01T12:51:07.798Z,98791.88
2023-05-01T12:53:35.513Z,98777.34
2023-05-01T12:56:03.519Z,98771.47
2023-05-01T12:58:37.904Z,98783.41
2023-05-01T13:01:05.531Z,98790.97
2023-05-01T13:03:34.738Z,98796.94
2023-05-01T13:06:03.920Z,98797.00
2023-05-01T13:08:33.566Z,98807.50
2023-05-01T13:11:09.332Z,98808.66
2023-05-01T13:13:37.801Z,98790.41
2023-05-01T13:16:12.944Z,98794.28
2023-05-01T13:18:45.989Z,98796.88
2023-05-01T13:21:16.305Z,98790.81
2023-05-01T13:24:01.431Z,98807.16
2023-05-01T13:26:33.750Z,98801.41
2023-05-01T13:29:03.362Z,98812.41
2023-05-01T13:31:30.711Z,98809.13
2023-05-01T13:34:01.097Z,98825.72
2023-05-01T13:36:33.323Z,98815.88
2023-05-01T13:39:00.998Z,98814.41
2023-05-01T13:41:28.526Z,98817.84
2023-05-01T13:43:57.469Z,98818.53
2023-05-01T13:46:26.978Z,98829.13
2023-05-01T13:48:54.134Z,98827.78
2023-05-01T13:51:25.463Z,98821.00
2023-05-01T13:53:54.199Z,98815.31
2023-05-01T13:56:22.127Z,98816.41
2023-05-01T13:58:50.545Z,98825.00
2023-05-01T14:01:22.773Z,98826.38
2023-05-01T14:03:51.837Z,98827.78
2023-05-01T14:06:20.968Z,98832.50
2023-05-01T14:08:49.017Z,98846.88
2023-05-01T14:11:16.169Z,98845.06
2023-05-01T14:13:45.109Z,98843.97
2023-05-01T14:16:30.436Z,98846.69
2023-05-01T14:18:57.963Z,98865.28
2023-05-01T14:21:30.098Z,98858.22
2023-05-01T14:23:58.365Z,98868.72
2023-05-01T14:26:25.681Z,98874.66
2023-05-01T14:28:52.626Z,98861.94
2023-05-01T14:31:30.534Z,98853.03
2023-05-01T14:34:02.400Z,98857.97
2023-05-01T14:36:33.218Z,98859.13
2023-05-01T14:39:01.825Z,98851.88
2023-05-01T14:41:30.079Z,98856.50
2023-05-01T14:43:57.225Z,98869.47
2023-05-01T14:46:34.226Z,98881.59
2023-05-01T14:49:02.136Z,98871.00
2023-05-01T14:51:31.393Z,98908.75
2023-05-01T14:53:58.796Z,98857.66
2023-05-01T14:56:26.185Z,98888.41
2023-05-01T14:58:53.529Z,98862.44
2023-05-01T15:01:20.916Z,98868.94
2023-05-01T15:03:47.987Z,98877.28
2023-05-01T15:06:15.124Z,98880.84
2023-05-01T15:08:42.124Z,98881.09
2023-05-01T15:11:09.618Z,98892.16
2023-05-01T15:13:36.750Z,98882.91
2023-05-01T15:16:04.055Z,98893.16
2023-05-01T15:18:31.550Z,98889.09
2023-05-01T15:20:58.476Z,98894.50
2023-05-01T15:23:27.482Z,98901.53
2023-05-01T15:25:55.009Z,98911.00
2023-05-01T15:28:22.198Z,98912.63
2023-05-01T15:30:49.410Z,98924.22
2023-05-01T15:33:19.326Z,98919.41
2023-05-01T15:35:48.833Z,98918.59
2023-05-01T15:38:15.893Z,98932.59
2023-05-01T15:40:45.949Z,98935.00
2023-05-01T15:43:12.896Z,98926.34
2023-05-01T15:45:43.379Z,98941.94
2023-05-01T15:48:13.975Z,98946.19
2023-05-01T15:50:41.401Z,98949.88
2023-05-01T15:53:09.196Z,98951.72
2023-05-01T15:55:36.874Z,98952.19
2023-05-01T15:58:04.231Z,98956.19
2023-05-01T16:00:31.367Z,98963.47
2023-05-01T16:02:58.609Z,98978.03
2023-05-01T16:05:25.721Z,98974.22
2023-05-01T16:07:55.766Z,98966.88
2023-05-01T16:10:23.422Z,98976.53
2023-05-01T16:12:52.696Z,98975.16
2023-05-01T16:15:19.669Z,98980.81
2023-05-01T16:17:46.933Z,98985.13
2023-05-01T16:20:14.595Z,98980.50
2023-05-01T16:22:43.354Z,98989.72
2023-05-01T16:25:11.088Z,98990.34
2023-05-01T16:27:44.338Z,98987.56
2023-05-01T16:30:16.091Z,98995.13
2023-05-01T16:32:44.947Z,99000.91
2023-05-01T16:35:21.117Z,99013.41
2023-05-01T16:37:48.221Z,99012.41
2023-05-01T16:40:16.939Z,99013.50
2023-05-01T16:42:53.665Z,99027.00
2023-05-01T16:45:21.456Z,99016.97
2023-05-01T16:47:48.381Z,99023.97
2023-05-01T16:50:16.579Z,99017.19
2023-05-01T16:52:43.660Z,99027.19
2023-05-01T16:55:10.758Z,99023.66
2023-05-01T16:57:37.860Z,99035.53
2023-05-01T17:00:05.656Z,99038.97
2023-05-01T17:02:33.994Z,99029.19
2023-05-01T17:05:02.970Z,99042.59
2023-05-01T17:07:30.189Z,99041.66
2023-05-01T17:09:57.734Z,99047.19
2023-05-01T17:12:25.376Z,99053.84
2023-05-01T17:14:53.890Z,99054.50
2023-05-01T17:17:21.721Z,99068.69
2023-05-01T17:19:49.185Z,99072.06
2023-05-01T17:22:16.123Z,99063.34
2023-05-01T17:24:43.147Z,99068.34
2023-05-01T17:27:10.331Z,99073.91
2023-05-01T17:29:37.400Z,99079.72
2023-05-01T17:32:04.855Z,99085.84
2023-05-01T17:34:31.914Z,99083.28
2023-05-01T17:36:59.233Z,99087.88
2023-05-01T17:39:28.313Z,99087.06
2023-05-01T17:41:55.621Z,99090.00
2023-05-01T17:44:22.714Z,99092.19
2023-05-01T17:46:49.846Z,99094.66
2023-05-01T17:49:16.869Z,99106.59
2023-05-01T17:51:45.402Z,99103.66
2023-05-01T17:54:12.615Z,99112.06
2023-05-01T17:56:39.812Z,99118.59
2023-05-01T17:59:07.357Z,99122.69
2023-05-01T18:01:34.805Z,99127.81
2023-05-01T18:04:02.290Z,99132.41
2023-05-01T18:06:29.468Z,99131.09
2023-05-01T18:08:56.544Z,99137.28
2023-05-01T18:11:23.733Z,99134.59
2023-05-01T18:13:50.996Z,99147.25
2023-05-01T18:16:18.794Z,99151.03
2023-05-01T18:18:48.227Z,99155.84
2023-05-01T18:21:15.264Z,99157.97
2023-05-01T18:23:42.292Z,99165.00
2023-05-01T18:26:09.306Z,99169.56
2023-05-01T18:28:36.305Z,99164.44
2023-05-01T18:31:03.937Z,99175.22
2023-05-01T18:33:31.715Z,99178.41
2023-05-01T18:35:58.807Z,99175.63
2023-05-01T18:38:28.121Z,99181.72
2023-05-01T18:40:55.363Z,99174.19
2023-05-01T18:43:22.323Z,99177.09
2023-05-01T18:45:49.330Z,99194.59
2023-05-01T18:48:16.489Z,99189.47
2023-05-01T18:50:47.166Z,99201.13
2023-05-01T18:53:18.437Z,99203.38
2023-05-01T18:55:45.588Z,99202.66
2023-05-01T18:58:12.733Z,99193.91
2023-05-01T19:00:39.824Z,99201.88
2023-05-01T19:03:07.409Z,99204.00
2023-05-01T19:05:34.626Z,99202.78
2023-05-01T19:08:05.260Z,99207.59
2023-05-01T19:10:32.298Z,99215.09
2023-05-01T19:13:00.981Z,99216.38
2023-05-01T19:15:28.006Z,99214.94
2023-05-01T19:17:55.377Z,99224.78
2023-05-01T19:20:22.435Z,99227.72
2023-05-01T19:22:49.398Z,99223.03
2023-05-01T19:25:16.515Z,99224.31
2023-05-01T19:27:43.492Z,99222.34
2023-05-01T19:30:11.230Z,99225.16
2023-05-01T19:32:38.536Z,99220.69
2023-05-01T19:35:05.854Z,99227.81
2023-05-01T19:37:32.744Z,99223.59
2023-05-01T19:40:00.091Z,99222.44
2023-05-01T19:42:27.708Z,99225.22
2023-05-01T19:44:54.650Z,99219.72
2023-05-01T19:47:21.607Z,99224.16
2023-05-01T19:49:48.535Z,99215.72
2023-05-01T19:52:15.622Z,99235.47
2023-05-01T19:54:44.997Z,99244.56
2023-05-01T19:57:13.066Z,99254.16
2023-05-01T19:59:41.392Z,99254.59
2023-05-01T20:02:08.459Z,99258.53
2023-05-01T20:04:36.322Z,99260.88
2023-05-01T20:07:04.783Z,99268.22
2023-05-01T20:09:32.360Z,99276.25
2023-05-01T20:11:59.427Z,99264.69
2023-05-01T20:14:26.361Z,99269.47
2023-05-01T20:16:53.655Z,99267.47
2023-05-01T20:19:20.766Z,99265.03
2023-05-01T20:21:47.738Z,99283.47
2023-05-01T20:24:14.783Z,99276.69
2023-05-01T20:26:41.920Z,99279.59
2023-05-01T20:29:09.649Z,99277.09
2023-05-01T20:31:36.704Z,99278.38
2023-05-01T20:34:03.859Z,99293.09
2023-05-01T20:36:30.985Z,99289.22
2023-05-01T20:38:58.067Z,99305.78
2023-05-01T20:41:25.910Z,99293.03
2023-05-01T20:43:53.233Z,99308.78
2023-05-01T20:46:20.368Z,99302.22
2023-05-01T20:48:47.711Z,99313.59
2023-05-01T20:51:18.166Z,99313.81
2023-05-01T20:53:45.170Z,99312.63
2023-05-01T20:56:12.419Z,99318.44
2023-05-01T20:58:39.486Z,99325.31
2023-05-01T21:01:06.832Z,99327.25
2023-05-01T21:03:34.202Z,99329.09
2023-05-01T21:06:02.281Z,99338.19
2023-05-01T21:08:30.156Z,99340.50
2023-05-01T21:10:57.405Z,99340.31
2023-05-01T21:13:27.129Z,99349.41
2023-05-01T21:15:54.446Z,99352.53
2023-05-01T21:18:21.636Z,99354.63
2023-05-01T21:20:48.967Z,99362.06
2023-05-01T21:23:17.234Z,99361.47
2023-05-01T21:25:44.649Z,99368.31
2023-05-01T21:28:15.132Z,99368.75
2023-05-01T21:30:43.000Z,99373.97
2023-05-01T21:33:14.592Z,99374.19
2023-05-01T21:35:43.232Z,99383.69
2023-05-01T21:38:10.666Z,99379.78
2023-05-01T21:40:40.559Z,99387.00
2023-05-01T21:43:08.415Z,99395.28
2023-05-01T21:45:40.473Z,99392.00
2023-05-01T21:48:09.022Z,99402.94
2023-05-01T21:50:40.202Z,99400.09
2023-05-01T21:53:07.490Z,99404.41
2023-05-01T21:55:34.634Z,99412.91
2023-05-01T21:58:02.395Z,99409.00
2023-05-01T22:00:30.298Z,99419.94
2023-05-01T22:02:57.738Z,99417.69
2023-05-01T22:05:24.833Z,99422.25
2023-05-01T22:07:52.905Z,99421.63
2023-05-01T22:10:20.687Z,99418.09
2023-05-01T22:12:49.454Z,99423.91
2023-05-01T22:15:17.148Z,99428.44
2023-05-01T22:17:45.094Z,99426.41
2023-05-01T22:20:12.365Z,99433.84
2023-05-01T22:22:40.993Z,99444.56
2023-05-01T22:25:08.860Z,99439.19
2023-05-01T22:27:36.512Z,99441.28
2023-05-01T22:30:05.166Z,99447.06
2023-05-01T22:32:32.651Z,99453.88
2023-05-01T22:34:59.694Z,99466.25
2023-05-01T22:37:26.914Z,99469.34
2023-05-01T22:39:54.193Z,99469.34
2023-05-01T22:42:21.851Z,99475.97
2023-05-01T22:44:49.682Z,99470.00
2023-05-01T22:47:17.078Z,99473.94
2023-05-01T22:49:44.140Z,99476.19
2023-05-01T22:52:11.316Z,99476.59
2023-05-01T22:54:38.304Z,99482.19
2023-05-01T22:57:05.439Z,99476.22
2023-05-01T22:59:32.602Z,99479.31
2023-05-01T23:02:03.189Z,99487.78
2023-05-01T23:04:31.094Z,99488.63
2023-05-01T23:06:58.618Z,99488.63
2023-05-01T23:09:25.762Z,99491.31
2023-05-01T23:11:52.808Z,99496.88
2023-05-01T23:14:19.903Z,99490.09
2023-05-01T23:16:46.909Z,99497.50
2023-05-01T23:19:22.473Z,99488.66
2023-05-01T23:21:51.128Z,99499.53
2023-05-01T23:24:20.148Z,99505.94
2023-05-01T23:26:47.454Z,99509.25
2023-05-01T23:29:16.277Z,99510.88
2023-05-01T23:31:46.953Z,99516.06
2023-05-01T23:34:17.427Z,99514.22
2023-05-01T23:36:46.567Z,99513.19
2023-05-01T23:39:14.407Z,99518.75
2023-05-01T23:41:41.599Z,99528.84
2023-05-01T23:44:09.751Z,99535.22
2023-05-01T23:46:37.474Z,99534.81
2023-05-01T23:49:04.827Z,99530.50
2023-05-01T23:51:32.271Z,99535.25
2023-05-01T23:53:59.334Z,99543.66
2023-05-01T23:56:26.537Z,99548.19
2023-05-01T23:58:53.496Z,99543.25
